sensor_id;sensor_type;location;lat;lon;timestamp;P1;durP1;ratioP1;P2;durP2;ratioP2
14088;SDS011;7120;52.890;6.040;2024-01-30T00:03:19;42.13;;;30.00;;
14088;SDS011;7120;52.890;6.040;2024-01-30T00:06:43;44.20;;;29.63;;
14088;SDS011;7120;52.890;6.040;2024-01-30T00:10:07;46.77;;;29.80;;
14088;SDS011;7120;52.890;6.040;2024-01-30T00:13:32;48.70;;;31.77;;
14088;SDS011;7120;52.890;6.040;2024-01-30T00:16:56;46.13;;;30.97;;
14088;SDS011;7120;52.890;6.040;2024-01-30T00:20:20;47.57;;;33.33;;
14088;SDS011;7120;52.890;6.040;2024-01-30T00:23:44;53.20;;;33.77;;
14088;SDS011;7120;52.890;6.040;2024-01-30T00:27:08;53.90;;;32.93;;
14088;SDS011;7120;52.890;6.040;2024-01-30T00:30:32;53.53;;;32.80;;
14088;SDS011;7120;52.890;6.040;2024-01-30T00:33:56;56.37;;;33.83;;
14088;SDS011;7120;52.890;6.040;2024-01-30T00:37:20;51.50;;;33.13;;
14088;SDS011;7120;52.890;6.040;2024-01-30T00:40:43;64.00;;;35.30;;
14088;SDS011;7120;52.890;6.040;2024-01-30T00:44:07;65.77;;;35.23;;
14088;SDS011;7120;52.890;6.040;2024-01-30T00:47:31;57.03;;;33.30;;
14088;SDS011;7120;52.890;6.040;2024-01-30T00:50:55;52.30;;;32.67;;
14088;SDS011;7120;52.890;6.040;2024-01-30T00:54:19;55.20;;;33.20;;
14088;SDS011;7120;52.890;6.040;2024-01-30T00:57:43;59.30;;;34.37;;
14088;SDS011;7120;52.890;6.040;2024-01-30T01:01:07;69.07;;;35.57;;
14088;SDS011;7120;52.890;6.040;2024-01-30T01:04:31;50.77;;;31.63;;
14088;SDS011;7120;52.890;6.040;2024-01-30T01:07:54;66.00;;;35.30;;
14088;SDS011;7120;52.890;6.040;2024-01-30T01:11:18;68.87;;;34.53;;
14088;SDS011;7120;52.890;6.040;2024-01-30T01:14:42;56.83;;;32.70;;
14088;SDS011;7120;52.890;6.040;2024-01-30T01:18:06;53.47;;;32.03;;
14088;SDS011;7120;52.890;6.040;2024-01-30T01:21:30;74.87;;;36.13;;
14088;SDS011;7120;52.890;6.040;2024-01-30T01:24:54;71.77;;;36.10;;
14088;SDS011;7120;52.890;6.040;2024-01-30T01:28:18;62.50;;;34.43;;
14088;SDS011;7120;52.890;6.040;2024-01-30T01:31:42;68.77;;;35.73;;
14088;SDS011;7120;52.890;6.040;2024-01-30T01:35:14;68.60;;;35.20;;
14088;SDS011;7120;52.890;6.040;2024-01-30T01:38:38;77.90;;;35.77;;
14088;SDS011;7120;52.890;6.040;2024-01-30T01:42:02;69.57;;;34.57;;
14088;SDS011;7120;52.890;6.040;2024-01-30T01:45:28;68.10;;;33.83;;
14088;SDS011;7120;52.890;6.040;2024-01-30T01:48:52;69.80;;;36.13;;
14088;SDS011;7120;52.890;6.040;2024-01-30T01:52:17;72.07;;;35.93;;
14088;SDS011;7120;52.890;6.040;2024-01-30T01:55:41;65.23;;;34.93;;
14088;SDS011;7120;52.890;6.040;2024-01-30T01:59:06;74.10;;;36.53;;
14088;SDS011;7120;52.890;6.040;2024-01-30T02:02:31;74.97;;;36.43;;
14088;SDS011;7120;52.890;6.040;2024-01-30T02:06:00;76.07;;;37.23;;
14088;SDS011;7120;52.890;6.040;2024-01-30T02:09:24;64.73;;;34.93;;
14088;SDS011;7120;52.890;6.040;2024-01-30T02:12:48;66.63;;;35.57;;
14088;SDS011;7120;52.890;6.040;2024-01-30T02:16:12;77.77;;;36.80;;
14088;SDS011;7120;52.890;6.040;2024-01-30T02:19:37;81.17;;;34.90;;
14088;SDS011;7120;52.890;6.040;2024-01-30T02:23:02;75.80;;;35.30;;
14088;SDS011;7120;52.890;6.040;2024-01-30T02:26:27;63.83;;;34.00;;
14088;SDS011;7120;52.890;6.040;2024-01-30T02:29:51;80.27;;;35.43;;
14088;SDS011;7120;52.890;6.040;2024-01-30T02:33:15;71.27;;;35.73;;
14088;SDS011;7120;52.890;6.040;2024-01-30T02:36:43;68.47;;;34.80;;
14088;SDS011;7120;52.890;6.040;2024-01-30T02:40:07;73.33;;;35.07;;
14088;SDS011;7120;52.890;6.040;2024-01-30T02:43:31;82.17;;;36.50;;
14088;SDS011;7120;52.890;6.040;2024-01-30T02:46:54;87.23;;;39.83;;
14088;SDS011;7120;52.890;6.040;2024-01-30T02:50:21;79.33;;;38.03;;
14088;SDS011;7120;52.890;6.040;2024-01-30T02:53:45;79.83;;;36.83;;
14088;SDS011;7120;52.890;6.040;2024-01-30T02:57:09;71.90;;;35.70;;
14088;SDS011;7120;52.890;6.040;2024-01-30T03:00:33;67.73;;;35.77;;
14088;SDS011;7120;52.890;6.040;2024-01-30T03:03:57;68.70;;;36.73;;
14088;SDS011;7120;52.890;6.040;2024-01-30T03:07:21;85.83;;;39.33;;
14088;SDS011;7120;52.890;6.040;2024-01-30T03:10:44;80.47;;;38.10;;
14088;SDS011;7120;52.890;6.040;2024-01-30T03:14:08;78.53;;;36.30;;
14088;SDS011;7120;52.890;6.040;2024-01-30T03:17:32;65.03;;;35.83;;
14088;SDS011;7120;52.890;6.040;2024-01-30T03:20:56;73.73;;;36.47;;
14088;SDS011;7120;52.890;6.040;2024-01-30T03:24:20;76.83;;;37.63;;
14088;SDS011;7120;52.890;6.040;2024-01-30T03:27:44;74.10;;;35.50;;
14088;SDS011;7120;52.890;6.040;2024-01-30T03:31:08;58.37;;;33.13;;
14088;SDS011;7120;52.890;6.040;2024-01-30T03:34:31;62.57;;;35.57;;
14088;SDS011;7120;52.890;6.040;2024-01-30T03:37:55;64.10;;;35.57;;
14088;SDS011;7120;52.890;6.040;2024-01-30T03:41:19;65.17;;;35.20;;
14088;SDS011;7120;52.890;6.040;2024-01-30T03:44:43;58.10;;;34.93;;
14088;SDS011;7120;52.890;6.040;2024-01-30T03:48:07;52.53;;;33.10;;
14088;SDS011;7120;52.890;6.040;2024-01-30T03:51:31;56.57;;;32.07;;
14088;SDS011;7120;52.890;6.040;2024-01-30T03:54:54;54.47;;;33.00;;
14088;SDS011;7120;52.890;6.040;2024-01-30T03:58:18;50.07;;;31.40;;
14088;SDS011;7120;52.890;6.040;2024-01-30T04:01:47;47.70;;;30.50;;
14088;SDS011;7120;52.890;6.040;2024-01-30T04:05:11;56.43;;;32.90;;
14088;SDS011;7120;52.890;6.040;2024-01-30T04:08:35;41.07;;;28.27;;
14088;SDS011;7120;52.890;6.040;2024-01-30T04:11:58;49.07;;;30.63;;
14088;SDS011;7120;52.890;6.040;2024-01-30T04:15:22;46.70;;;29.57;;
14088;SDS011;7120;52.890;6.040;2024-01-30T04:18:47;39.13;;;28.47;;
14088;SDS011;7120;52.890;6.040;2024-01-30T04:22:11;47.83;;;29.33;;
14088;SDS011;7120;52.890;6.040;2024-01-30T04:25:34;47.67;;;29.37;;
14088;SDS011;7120;52.890;6.040;2024-01-30T04:28:58;50.80;;;30.07;;
14088;SDS011;7120;52.890;6.040;2024-01-30T04:32:22;42.70;;;29.10;;
14088;SDS011;7120;52.890;6.040;2024-01-30T04:35:46;39.97;;;26.03;;
14088;SDS011;7120;52.890;6.040;2024-01-30T04:39:10;46.10;;;28.47;;
14088;SDS011;7120;52.890;6.040;2024-01-30T04:42:34;39.83;;;26.87;;
14088;SDS011;7120;52.890;6.040;2024-01-30T04:45:58;41.07;;;28.33;;
14088;SDS011;7120;52.890;6.040;2024-01-30T04:49:26;36.23;;;26.10;;
14088;SDS011;7120;52.890;6.040;2024-01-30T04:52:51;39.30;;;27.20;;
14088;SDS011;7120;52.890;6.040;2024-01-30T04:56:15;42.20;;;29.20;;
14088;SDS011;7120;52.890;6.040;2024-01-30T04:59:39;36.23;;;26.53;;
14088;SDS011;7120;52.890;6.040;2024-01-30T05:03:03;32.50;;;26.03;;
14088;SDS011;7120;52.890;6.040;2024-01-30T05:06:28;37.47;;;26.57;;
14088;SDS011;7120;52.890;6.040;2024-01-30T05:09:52;35.77;;;26.97;;
14088;SDS011;7120;52.890;6.040;2024-01-30T05:13:19;33.93;;;26.00;;
14088;SDS011;7120;52.890;6.040;2024-01-30T05:16:43;34.10;;;25.50;;
14088;SDS011;7120;52.890;6.040;2024-01-30T05:20:07;34.87;;;25.93;;
14088;SDS011;7120;52.890;6.040;2024-01-30T05:23:31;32.77;;;26.03;;
14088;SDS011;7120;52.890;6.040;2024-01-30T05:26:55;32.37;;;25.27;;
14088;SDS011;7120;52.890;6.040;2024-01-30T05:30:20;30.43;;;24.47;;
14088;SDS011;7120;52.890;6.040;2024-01-30T05:33:44;32.53;;;26.00;;
14088;SDS011;7120;52.890;6.040;2024-01-30T05:37:08;31.57;;;25.07;;
14088;SDS011;7120;52.890;6.040;2024-01-30T05:40:32;28.97;;;23.63;;
14088;SDS011;7120;52.890;6.040;2024-01-30T05:43:55;29.40;;;24.00;;
14088;SDS011;7120;52.890;6.040;2024-01-30T05:47:20;31.43;;;24.50;;
14088;SDS011;7120;52.890;6.040;2024-01-30T05:50:43;27.37;;;23.87;;
14088;SDS011;7120;52.890;6.040;2024-01-30T05:54:07;28.20;;;22.30;;
14088;SDS011;7120;52.890;6.040;2024-01-30T05:57:31;31.07;;;23.50;;
14088;SDS011;7120;52.890;6.040;2024-01-30T06:00:58;29.03;;;23.37;;
14088;SDS011;7120;52.890;6.040;2024-01-30T06:04:22;28.50;;;23.33;;
14088;SDS011;7120;52.890;6.040;2024-01-30T06:07:46;28.93;;;23.00;;
14088;SDS011;7120;52.890;6.040;2024-01-30T06:11:11;27.10;;;22.93;;
14088;SDS011;7120;52.890;6.040;2024-01-30T06:14:36;25.57;;;21.57;;
14088;SDS011;7120;52.890;6.040;2024-01-30T06:18:00;28.00;;;22.40;;
14088;SDS011;7120;52.890;6.040;2024-01-30T06:21:25;25.33;;;21.47;;
14088;SDS011;7120;52.890;6.040;2024-01-30T06:24:49;26.33;;;22.13;;
14088;SDS011;7120;52.890;6.040;2024-01-30T06:28:12;22.33;;;19.93;;
14088;SDS011;7120;52.890;6.040;2024-01-30T06:31:39;27.40;;;21.43;;
14088;SDS011;7120;52.890;6.040;2024-01-30T06:35:03;23.77;;;20.47;;
14088;SDS011;7120;52.890;6.040;2024-01-30T06:38:27;25.43;;;21.70;;
14088;SDS011;7120;52.890;6.040;2024-01-30T06:41:51;24.63;;;21.60;;
14088;SDS011;7120;52.890;6.040;2024-01-30T06:45:15;21.83;;;19.00;;
14088;SDS011;7120;52.890;6.040;2024-01-30T06:48:39;22.13;;;18.93;;
14088;SDS011;7120;52.890;6.040;2024-01-30T06:52:06;23.87;;;19.77;;
14088;SDS011;7120;52.890;6.040;2024-01-30T06:55:30;20.60;;;18.40;;
14088;SDS011;7120;52.890;6.040;2024-01-30T06:58:54;23.50;;;19.13;;
14088;SDS011;7120;52.890;6.040;2024-01-30T07:02:17;19.87;;;17.77;;
14088;SDS011;7120;52.890;6.040;2024-01-30T07:05:41;20.87;;;18.33;;
14088;SDS011;7120;52.890;6.040;2024-01-30T07:09:05;20.03;;;18.03;;
14088;SDS011;7120;52.890;6.040;2024-01-30T07:12:30;20.73;;;18.57;;
14088;SDS011;7120;52.890;6.040;2024-01-30T07:15:54;20.07;;;17.93;;
14088;SDS011;7120;52.890;6.040;2024-01-30T07:19:18;20.13;;;18.13;;
14088;SDS011;7120;52.890;6.040;2024-01-30T07:22:44;19.53;;;17.63;;
14088;SDS011;7120;52.890;6.040;2024-01-30T07:26:08;21.53;;;17.43;;
14088;SDS011;7120;52.890;6.040;2024-01-30T07:29:32;18.43;;;16.43;;
14088;SDS011;7120;52.890;6.040;2024-01-30T07:32:56;18.93;;;16.80;;
14088;SDS011;7120;52.890;6.040;2024-01-30T07:36:20;18.10;;;16.37;;
14088;SDS011;7120;52.890;6.040;2024-01-30T07:39:44;17.37;;;15.57;;
14088;SDS011;7120;52.890;6.040;2024-01-30T07:43:08;16.67;;;15.07;;
14088;SDS011;7120;52.890;6.040;2024-01-30T07:46:32;18.97;;;17.10;;
14088;SDS011;7120;52.890;6.040;2024-01-30T07:49:56;16.83;;;15.13;;
14088;SDS011;7120;52.890;6.040;2024-01-30T07:53:20;17.53;;;15.43;;
14088;SDS011;7120;52.890;6.040;2024-01-30T07:56:44;18.47;;;15.70;;
14088;SDS011;7120;52.890;6.040;2024-01-30T08:00:08;16.93;;;15.33;;
14088;SDS011;7120;52.890;6.040;2024-01-30T08:03:32;16.20;;;14.60;;
14088;SDS011;7120;52.890;6.040;2024-01-30T08:06:55;16.83;;;15.17;;
14088;SDS011;7120;52.890;6.040;2024-01-30T08:10:19;16.40;;;14.73;;
14088;SDS011;7120;52.890;6.040;2024-01-30T08:13:44;16.87;;;15.17;;
14088;SDS011;7120;52.890;6.040;2024-01-30T08:17:08;17.20;;;15.40;;
14088;SDS011;7120;52.890;6.040;2024-01-30T08:20:32;18.33;;;16.00;;
14088;SDS011;7120;52.890;6.040;2024-01-30T08:24:01;15.87;;;14.20;;
14088;SDS011;7120;52.890;6.040;2024-01-30T08:27:25;16.03;;;14.10;;
14088;SDS011;7120;52.890;6.040;2024-01-30T08:30:48;15.87;;;14.27;;
14088;SDS011;7120;52.890;6.040;2024-01-30T08:34:12;17.50;;;14.27;;
14088;SDS011;7120;52.890;6.040;2024-01-30T08:37:38;16.53;;;14.87;;
14088;SDS011;7120;52.890;6.040;2024-01-30T08:41:02;16.80;;;13.90;;
14088;SDS011;7120;52.890;6.040;2024-01-30T08:44:26;18.17;;;14.83;;
14088;SDS011;7120;52.890;6.040;2024-01-30T08:47:50;19.33;;;14.67;;
14088;SDS011;7120;52.890;6.040;2024-01-30T08:51:14;19.53;;;14.80;;
14088;SDS011;7120;52.890;6.040;2024-01-30T08:54:38;16.40;;;14.73;;
14088;SDS011;7120;52.890;6.040;2024-01-30T08:58:02;15.33;;;13.73;;
14088;SDS011;7120;52.890;6.040;2024-01-30T09:01:25;15.50;;;13.13;;
14088;SDS011;7120;52.890;6.040;2024-01-30T09:04:49;15.57;;;12.60;;
14088;SDS011;7120;52.890;6.040;2024-01-30T09:08:13;15.53;;;13.57;;
14088;SDS011;7120;52.890;6.040;2024-01-30T09:11:37;19.10;;;14.33;;
14088;SDS011;7120;52.890;6.040;2024-01-30T09:15:01;18.70;;;14.03;;
14088;SDS011;7120;52.890;6.040;2024-01-30T09:18:25;17.97;;;14.47;;
14088;SDS011;7120;52.890;6.040;2024-01-30T09:21:49;17.33;;;14.07;;
14088;SDS011;7120;52.890;6.040;2024-01-30T09:25:13;15.67;;;14.00;;
14088;SDS011;7120;52.890;6.040;2024-01-30T09:28:37;15.80;;;13.17;;
14088;SDS011;7120;52.890;6.040;2024-01-30T09:32:01;14.70;;;13.10;;
14088;SDS011;7120;52.890;6.040;2024-01-30T09:35:25;15.67;;;13.70;;
14088;SDS011;7120;52.890;6.040;2024-01-30T09:38:49;13.30;;;11.90;;
14088;SDS011;7120;52.890;6.040;2024-01-30T09:45:58;14.10;;;12.00;;
14088;SDS011;7120;52.890;6.040;2024-01-30T09:49:28;14.07;;;11.63;;
14088;SDS011;7120;52.890;6.040;2024-01-30T09:52:52;13.70;;;11.33;;
14088;SDS011;7120;52.890;6.040;2024-01-30T09:56:19;14.43;;;11.63;;
14088;SDS011;7120;52.890;6.040;2024-01-30T09:59:43;13.97;;;11.60;;
14088;SDS011;7120;52.890;6.040;2024-01-30T10:03:07;12.97;;;11.10;;
14088;SDS011;7120;52.890;6.040;2024-01-30T10:06:32;13.80;;;12.07;;
14088;SDS011;7120;52.890;6.040;2024-01-30T10:09:56;18.07;;;13.33;;
14088;SDS011;7120;52.890;6.040;2024-01-30T10:13:19;20.17;;;13.77;;
14088;SDS011;7120;52.890;6.040;2024-01-30T10:16:45;17.33;;;14.53;;
14088;SDS011;7120;52.890;6.040;2024-01-30T10:20:10;16.30;;;13.30;;
14088;SDS011;7120;52.890;6.040;2024-01-30T10:23:34;15.70;;;13.33;;
14088;SDS011;7120;52.890;6.040;2024-01-30T10:27:01;15.80;;;14.10;;
14088;SDS011;7120;52.890;6.040;2024-01-30T10:30:25;18.80;;;13.63;;
14088;SDS011;7120;52.890;6.040;2024-01-30T10:33:49;15.43;;;12.73;;
14088;SDS011;7120;52.890;6.040;2024-01-30T10:37:13;19.33;;;12.97;;
14088;SDS011;7120;52.890;6.040;2024-01-30T10:40:40;13.63;;;12.00;;
14088;SDS011;7120;52.890;6.040;2024-01-30T10:44:09;19.33;;;12.63;;
14088;SDS011;7120;52.890;6.040;2024-01-30T10:47:35;15.27;;;11.83;;
14088;SDS011;7120;52.890;6.040;2024-01-30T10:51:01;12.53;;;11.23;;
14088;SDS011;7120;52.890;6.040;2024-01-30T10:54:26;15.20;;;12.80;;
14088;SDS011;7120;52.890;6.040;2024-01-30T10:57:53;16.20;;;13.00;;
14088;SDS011;7120;52.890;6.040;2024-01-30T11:01:21;15.43;;;12.23;;
14088;SDS011;7120;52.890;6.040;2024-01-30T11:04:46;17.53;;;10.17;;
14088;SDS011;7120;52.890;6.040;2024-01-30T11:08:14;14.27;;;8.10;;
14088;SDS011;7120;52.890;6.040;2024-01-30T11:11:51;17.30;;;7.37;;
14088;SDS011;7120;52.890;6.040;2024-01-30T11:15:16;10.13;;;6.00;;
14088;SDS011;7120;52.890;6.040;2024-01-30T11:18:40;12.20;;;5.60;;
14088;SDS011;7120;52.890;6.040;2024-01-30T11:22:06;10.13;;;5.53;;
14088;SDS011;7120;52.890;6.040;2024-01-30T11:25:36;10.97;;;4.73;;
14088;SDS011;7120;52.890;6.040;2024-01-30T11:29:03;11.07;;;4.43;;
14088;SDS011;7120;52.890;6.040;2024-01-30T11:32:27;10.90;;;3.90;;
14088;SDS011;7120;52.890;6.040;2024-01-30T11:35:52;9.87;;;4.40;;
14088;SDS011;7120;52.890;6.040;2024-01-30T11:39:23;9.17;;;4.47;;
14088;SDS011;7120;52.890;6.040;2024-01-30T11:42:49;8.77;;;3.37;;
14088;SDS011;7120;52.890;6.040;2024-01-30T11:46:16;10.47;;;3.10;;
14088;SDS011;7120;52.890;6.040;2024-01-30T11:49:40;7.37;;;2.50;;
14088;SDS011;7120;52.890;6.040;2024-01-30T11:53:05;5.00;;;2.30;;
14088;SDS011;7120;52.890;6.040;2024-01-30T11:56:29;5.43;;;1.50;;
14088;SDS011;7120;52.890;6.040;2024-01-30T11:59:53;3.40;;;1.83;;
14088;SDS011;7120;52.890;6.040;2024-01-30T12:03:18;2.70;;;1.30;;
14088;SDS011;7120;52.890;6.040;2024-01-30T12:06:42;2.87;;;1.03;;
14088;SDS011;7120;52.890;6.040;2024-01-30T12:10:09;2.40;;;0.97;;
14088;SDS011;7120;52.890;6.040;2024-01-30T12:13:33;1.70;;;1.10;;
14088;SDS011;7120;52.890;6.040;2024-01-30T12:16:57;4.50;;;1.30;;
14088;SDS011;7120;52.890;6.040;2024-01-30T12:20:31;4.57;;;1.10;;
14088;SDS011;7120;52.890;6.040;2024-01-30T12:23:56;2.73;;;1.43;;
14088;SDS011;7120;52.890;6.040;2024-01-30T12:27:20;5.83;;;1.73;;
14088;SDS011;7120;52.890;6.040;2024-01-30T12:30:44;4.53;;;1.97;;
14088;SDS011;7120;52.890;6.040;2024-01-30T12:34:09;7.03;;;2.60;;
14088;SDS011;7120;52.890;6.040;2024-01-30T12:37:36;4.60;;;1.93;;
14088;SDS011;7120;52.890;6.040;2024-01-30T12:41:00;2.63;;;1.67;;
14088;SDS011;7120;52.890;6.040;2024-01-30T12:44:24;3.67;;;1.60;;
14088;SDS011;7120;52.890;6.040;2024-01-30T12:47:48;1.73;;;1.03;;
14088;SDS011;7120;52.890;6.040;2024-01-30T12:51:12;2.90;;;1.07;;
14088;SDS011;7120;52.890;6.040;2024-01-30T12:54:36;2.27;;;1.00;;
14088;SDS011;7120;52.890;6.040;2024-01-30T12:58:00;1.83;;;0.90;;
14088;SDS011;7120;52.890;6.040;2024-01-30T13:01:24;1.87;;;0.90;;
14088;SDS011;7120;52.890;6.040;2024-01-30T13:04:48;1.67;;;0.80;;
14088;SDS011;7120;52.890;6.040;2024-01-30T13:08:12;2.40;;;0.80;;
14088;SDS011;7120;52.890;6.040;2024-01-30T13:11:37;1.50;;;0.90;;
14088;SDS011;7120;52.890;6.040;2024-01-30T13:15:02;2.80;;;1.03;;
14088;SDS011;7120;52.890;6.040;2024-01-30T13:18:26;1.17;;;0.70;;
14088;SDS011;7120;52.890;6.040;2024-01-30T13:21:49;1.33;;;0.80;;
14088;SDS011;7120;52.890;6.040;2024-01-30T13:25:14;1.60;;;0.90;;
14088;SDS011;7120;52.890;6.040;2024-01-30T13:28:38;3.13;;;1.33;;
14088;SDS011;7120;52.890;6.040;2024-01-30T13:32:02;4.37;;;1.30;;
14088;SDS011;7120;52.890;6.040;2024-01-30T13:35:28;5.40;;;1.60;;
14088;SDS011;7120;52.890;6.040;2024-01-30T13:38:52;4.03;;;1.73;;
14088;SDS011;7120;52.890;6.040;2024-01-30T13:42:16;3.70;;;1.60;;
14088;SDS011;7120;52.890;6.040;2024-01-30T13:45:41;3.13;;;1.70;;
14088;SDS011;7120;52.890;6.040;2024-01-30T13:49:05;7.07;;;2.10;;
14088;SDS011;7120;52.890;6.040;2024-01-30T13:52:29;5.73;;;2.43;;
14088;SDS011;7120;52.890;6.040;2024-01-30T13:55:53;3.50;;;2.33;;
14088;SDS011;7120;52.890;6.040;2024-01-30T13:59:17;4.40;;;3.03;;
14088;SDS011;7120;52.890;6.040;2024-01-30T14:02:41;6.87;;;3.00;;
14088;SDS011;7120;52.890;6.040;2024-01-30T14:06:05;4.97;;;2.83;;
14088;SDS011;7120;52.890;6.040;2024-01-30T14:09:29;6.93;;;3.67;;
14088;SDS011;7120;52.890;6.040;2024-01-30T14:12:53;5.43;;;4.87;;
14088;SDS011;7120;52.890;6.040;2024-01-30T14:16:17;6.53;;;4.67;;
14088;SDS011;7120;52.890;6.040;2024-01-30T14:19:41;8.60;;;7.77;;
14088;SDS011;7120;52.890;6.040;2024-01-30T14:23:05;6.33;;;5.77;;
14088;SDS011;7120;52.890;6.040;2024-01-30T14:26:29;9.07;;;6.70;;
14088;SDS011;7120;52.890;6.040;2024-01-30T14:29:53;8.73;;;7.80;;
14088;SDS011;7120;52.890;6.040;2024-01-30T14:33:17;8.63;;;7.00;;
14088;SDS011;7120;52.890;6.040;2024-01-30T14:36:40;7.23;;;6.57;;
14088;SDS011;7120;52.890;6.040;2024-01-30T14:40:05;10.53;;;7.40;;
14088;SDS011;7120;52.890;6.040;2024-01-30T14:43:29;8.07;;;7.37;;
14088;SDS011;7120;52.890;6.040;2024-01-30T14:46:53;11.47;;;10.47;;
14088;SDS011;7120;52.890;6.040;2024-01-30T14:50:17;13.57;;;12.50;;
14088;SDS011;7120;52.890;6.040;2024-01-30T14:53:41;26.17;;;23.63;;
14088;SDS011;7120;52.890;6.040;2024-01-30T14:57:05;9.77;;;8.90;;
14088;SDS011;7120;52.890;6.040;2024-01-30T15:00:29;10.17;;;9.00;;
14088;SDS011;7120;52.890;6.040;2024-01-30T15:03:53;11.03;;;10.07;;
14088;SDS011;7120;52.890;6.040;2024-01-30T15:07:17;11.57;;;9.80;;
14088;SDS011;7120;52.890;6.040;2024-01-30T15:10:41;10.43;;;9.53;;
14088;SDS011;7120;52.890;6.040;2024-01-30T15:14:05;10.53;;;9.50;;
14088;SDS011;7120;52.890;6.040;2024-01-30T15:17:31;10.40;;;9.37;;
14088;SDS011;7120;52.890;6.040;2024-01-30T15:20:55;12.60;;;11.17;;
14088;SDS011;7120;52.890;6.040;2024-01-30T15:24:19;9.30;;;8.53;;
14088;SDS011;7120;52.890;6.040;2024-01-30T15:27:43;11.87;;;10.27;;
14088;SDS011;7120;52.890;6.040;2024-01-30T15:31:07;11.80;;;10.60;;
14088;SDS011;7120;52.890;6.040;2024-01-30T15:34:31;13.33;;;11.97;;
14088;SDS011;7120;52.890;6.040;2024-01-30T15:37:55;13.37;;;11.37;;
14088;SDS011;7120;52.890;6.040;2024-01-30T15:41:19;13.03;;;11.70;;
14088;SDS011;7120;52.890;6.040;2024-01-30T15:44:42;10.83;;;9.67;;
14088;SDS011;7120;52.890;6.040;2024-01-30T15:48:06;12.10;;;10.93;;
14088;SDS011;7120;52.890;6.040;2024-01-30T15:51:33;10.77;;;9.70;;
14088;SDS011;7120;52.890;6.040;2024-01-30T15:54:57;10.20;;;9.33;;
14088;SDS011;7120;52.890;6.040;2024-01-30T15:58:21;10.13;;;9.10;;
14088;SDS011;7120;52.890;6.040;2024-01-30T16:01:45;11.27;;;10.10;;
14088;SDS011;7120;52.890;6.040;2024-01-30T16:05:12;13.63;;;10.10;;
14088;SDS011;7120;52.890;6.040;2024-01-30T16:08:36;13.30;;;10.20;;
14088;SDS011;7120;52.890;6.040;2024-01-30T16:12:00;14.97;;;9.97;;
14088;SDS011;7120;52.890;6.040;2024-01-30T16:15:24;23.53;;;14.97;;
14088;SDS011;7120;52.890;6.040;2024-01-30T16:18:48;18.37;;;11.30;;
14088;SDS011;7120;52.890;6.040;2024-01-30T16:22:14;19.63;;;11.00;;
14088;SDS011;7120;52.890;6.040;2024-01-30T16:25:38;17.53;;;9.73;;
14088;SDS011;7120;52.890;6.040;2024-01-30T16:29:02;16.43;;;9.17;;
14088;SDS011;7120;52.890;6.040;2024-01-30T16:32:26;16.73;;;8.77;;
14088;SDS011;7120;52.890;6.040;2024-01-30T16:35:50;18.47;;;8.70;;
14088;SDS011;7120;52.890;6.040;2024-01-30T16:39:14;17.80;;;8.20;;
14088;SDS011;7120;52.890;6.040;2024-01-30T16:42:38;11.70;;;7.17;;
14088;SDS011;7120;52.890;6.040;2024-01-30T16:46:02;21.60;;;9.07;;
14088;SDS011;7120;52.890;6.040;2024-01-30T16:49:26;16.90;;;7.20;;
14088;SDS011;7120;52.890;6.040;2024-01-30T16:52:50;28.53;;;20.40;;
14088;SDS011;7120;52.890;6.040;2024-01-30T16:56:14;12.73;;;7.03;;
14088;SDS011;7120;52.890;6.040;2024-01-30T16:59:38;12.57;;;6.37;;
14088;SDS011;7120;52.890;6.040;2024-01-30T17:03:02;17.33;;;6.20;;
14088;SDS011;7120;52.890;6.040;2024-01-30T17:06:26;21.10;;;5.33;;
14088;SDS011;7120;52.890;6.040;2024-01-30T17:09:50;20.77;;;5.27;;
14088;SDS011;7120;52.890;6.040;2024-01-30T17:13:13;22.37;;;5.73;;
14088;SDS011;7120;52.890;6.040;2024-01-30T17:16:39;24.27;;;5.33;;
14088;SDS011;7120;52.890;6.040;2024-01-30T17:20:03;24.97;;;7.67;;
14088;SDS011;7120;52.890;6.040;2024-01-30T17:23:27;35.07;;;6.30;;
14088;SDS011;7120;52.890;6.040;2024-01-30T17:26:51;31.07;;;13.63;;
14088;SDS011;7120;52.890;6.040;2024-01-30T17:30:20;26.47;;;6.57;;
14088;SDS011;7120;52.890;6.040;2024-01-30T17:33:44;28.77;;;7.07;;
14088;SDS011;7120;52.890;6.040;2024-01-30T17:37:08;22.43;;;5.90;;
14088;SDS011;7120;52.890;6.040;2024-01-30T17:40:32;23.63;;;5.60;;
14088;SDS011;7120;52.890;6.040;2024-01-30T17:43:57;30.90;;;5.90;;
14088;SDS011;7120;52.890;6.040;2024-01-30T17:47:21;24.00;;;5.80;;
14088;SDS011;7120;52.890;6.040;2024-01-30T17:50:45;29.87;;;6.03;;
14088;SDS011;7120;52.890;6.040;2024-01-30T17:54:10;25.00;;;5.97;;
14088;SDS011;7120;52.890;6.040;2024-01-30T17:57:34;28.43;;;6.23;;
14088;SDS011;7120;52.890;6.040;2024-01-30T18:00:58;21.73;;;5.30;;
14088;SDS011;7120;52.890;6.040;2024-01-30T18:04:22;26.80;;;6.30;;
14088;SDS011;7120;52.890;6.040;2024-01-30T18:07:46;32.20;;;6.00;;
14088;SDS011;7120;52.890;6.040;2024-01-30T18:11:10;26.50;;;5.93;;
14088;SDS011;7120;52.890;6.040;2024-01-30T18:14:35;27.73;;;5.50;;
14088;SDS011;7120;52.890;6.040;2024-01-30T18:18:00;22.97;;;5.07;;
14088;SDS011;7120;52.890;6.040;2024-01-30T18:21:24;30.07;;;5.07;;
14088;SDS011;7120;52.890;6.040;2024-01-30T18:24:49;24.10;;;5.57;;
14088;SDS011;7120;52.890;6.040;2024-01-30T18:28:14;36.03;;;5.80;;
14088;SDS011;7120;52.890;6.040;2024-01-30T18:31:38;31.47;;;5.20;;
14088;SDS011;7120;52.890;6.040;2024-01-30T18:35:03;20.97;;;4.93;;
14088;SDS011;7120;52.890;6.040;2024-01-30T18:38:27;21.73;;;6.10;;
14088;SDS011;7120;52.890;6.040;2024-01-30T18:41:52;24.53;;;5.50;;
14088;SDS011;7120;52.890;6.040;2024-01-30T18:45:16;18.63;;;6.30;;
14088;SDS011;7120;52.890;6.040;2024-01-30T18:48:46;21.13;;;5.63;;
14088;SDS011;7120;52.890;6.040;2024-01-30T18:52:10;21.33;;;5.07;;
14088;SDS011;7120;52.890;6.040;2024-01-30T18:55:33;23.17;;;5.13;;
14088;SDS011;7120;52.890;6.040;2024-01-30T18:58:57;25.53;;;5.07;;
14088;SDS011;7120;52.890;6.040;2024-01-30T19:02:21;25.40;;;6.20;;
14088;SDS011;7120;52.890;6.040;2024-01-30T19:05:48;25.23;;;5.87;;
14088;SDS011;7120;52.890;6.040;2024-01-30T19:09:16;27.53;;;6.03;;
14088;SDS011;7120;52.890;6.040;2024-01-30T19:12:40;24.10;;;5.70;;
14088;SDS011;7120;52.890;6.040;2024-01-30T19:16:04;27.13;;;5.23;;
14088;SDS011;7120;52.890;6.040;2024-01-30T19:19:30;21.03;;;5.00;;
14088;SDS011;7120;52.890;6.040;2024-01-30T19:22:53;16.67;;;4.77;;
14088;SDS011;7120;52.890;6.040;2024-01-30T19:26:20;28.23;;;5.57;;
14088;SDS011;7120;52.890;6.040;2024-01-30T19:29:43;19.87;;;5.20;;
14088;SDS011;7120;52.890;6.040;2024-01-30T19:33:07;20.17;;;4.30;;
14088;SDS011;7120;52.890;6.040;2024-01-30T19:36:31;24.80;;;5.30;;
14088;SDS011;7120;52.890;6.040;2024-01-30T19:39:57;22.87;;;4.63;;
14088;SDS011;7120;52.890;6.040;2024-01-30T19:43:22;25.30;;;8.93;;
14088;SDS011;7120;52.890;6.040;2024-01-30T19:46:46;21.90;;;5.90;;
14088;SDS011;7120;52.890;6.040;2024-01-30T19:50:13;20.63;;;4.93;;
14088;SDS011;7120;52.890;6.040;2024-01-30T19:53:37;24.50;;;5.17;;
14088;SDS011;7120;52.890;6.040;2024-01-30T19:57:02;17.83;;;5.60;;
14088;SDS011;7120;52.890;6.040;2024-01-30T20:00:29;12.27;;;4.30;;
14088;SDS011;7120;52.890;6.040;2024-01-30T20:03:52;15.27;;;4.60;;
14088;SDS011;7120;52.890;6.040;2024-01-30T20:07:16;14.40;;;4.70;;
14088;SDS011;7120;52.890;6.040;2024-01-30T20:10:41;11.83;;;5.10;;
14088;SDS011;7120;52.890;6.040;2024-01-30T20:14:05;9.67;;;3.50;;
14088;SDS011;7120;52.890;6.040;2024-01-30T20:17:29;10.37;;;4.20;;
14088;SDS011;7120;52.890;6.040;2024-01-30T20:20:55;10.03;;;3.33;;
14088;SDS011;7120;52.890;6.040;2024-01-30T20:24:20;12.97;;;4.50;;
14088;SDS011;7120;52.890;6.040;2024-01-30T20:27:44;15.87;;;3.50;;
14088;SDS011;7120;52.890;6.040;2024-01-30T20:31:08;8.57;;;2.93;;